createdAt,value
2018-12-15T05:31:47.374Z,10.73
2018-12-15T05:34:16.110Z,10.00
2018-12-15T05:36:44.715Z,9.68
2018-12-15T05:39:13.171Z,9.93
2018-12-15T05:41:42.509Z,10.87
2018-12-15T05:44:11.065Z,8.77
2018-12-15T05:46:40.018Z,10.03
2018-12-15T05:49:08.946Z,9.37
2018-12-15T05:51:37.470Z,9.53
2018-12-15T05:54:05.750Z,9.67
2018-12-15T05:56:34.045Z,7.20
2018-12-15T05:59:02.613Z,7.92
2018-12-15T06:01:31.545Z,8.40
2018-12-15T06:03:59.850Z,8.70
2018-12-15T06:06:28.418Z,9.03
2018-12-15T06:08:56.800Z,8.40
2018-12-15T06:11:25.591Z,8.00
2018-12-15T06:13:53.865Z,8.93
2018-12-15T06:16:22.162Z,8.43
2018-12-15T06:18:51.062Z,8.25
2018-12-15T06:21:19.522Z,6.43
2018-12-15T06:23:48.093Z,6.35
2018-12-15T06:26:16.416Z,6.67
2018-12-15T06:28:45.116Z,7.93
2018-12-15T06:31:13.713Z,8.03
2018-12-15T06:33:42.301Z,7.60
2018-12-15T06:36:11.386Z,6.57
2018-12-15T06:38:39.949Z,6.17
2018-12-15T06:41:08.640Z,6.23
2018-12-15T06:43:37.887Z,5.57
2018-12-15T06:46:06.847Z,4.75
2018-12-15T06:48:38.319Z,4.47
2018-12-15T06:51:06.119Z,4.60
2018-12-15T06:53:34.726Z,3.37
2018-12-15T06:56:03.886Z,2.83
2018-12-15T06:58:32.175Z,3.00
2018-12-15T07:01:00.594Z,3.27
2018-12-15T07:03:29.192Z,3.00
2018-12-15T07:05:57.489Z,3.30
2018-12-15T07:08:25.836Z,2.83
2018-12-15T07:10:54.443Z,2.67
2018-12-15T07:13:23.221Z,2.98
2018-12-15T07:15:52.240Z,2.62
2018-12-15T07:18:20.590Z,3.63
2018-12-15T07:20:49.474Z,3.50
2018-12-15T07:23:18.023Z,2.92
2018-12-15T07:25:47.145Z,2.80
2018-12-15T07:28:15.693Z,3.02
2018-12-15T07:30:44.285Z,3.00
2018-12-15T07:33:13.008Z,3.73
2018-12-15T07:35:41.582Z,3.30
2018-12-15T07:38:09.872Z,3.03
2018-12-15T07:40:38.203Z,3.40
2018-12-15T07:43:06.605Z,3.57
2018-12-15T07:45:35.253Z,3.27
2018-12-15T07:48:03.573Z,2.77
2018-12-15T07:50:31.965Z,3.10
2018-12-15T07:53:00.237Z,4.97
2018-12-15T07:55:28.533Z,4.80
2018-12-15T07:57:57.088Z,4.50
2018-12-15T08:00:25.634Z,4.80
2018-12-15T08:02:54.429Z,4.53
2018-12-15T08:05:23.237Z,4.53
2018-12-15T08:07:52.502Z,4.40
2018-12-15T08:10:24.876Z,4.70
2018-12-15T08:12:57.309Z,3.87
2018-12-15T08:15:26.378Z,4.50
2018-12-15T08:17:54.947Z,4.10
2018-12-15T08:20:23.954Z,4.33
2018-12-15T08:22:52.373Z,4.20
2018-12-15T08:25:20.951Z,4.08
2018-12-15T08:27:49.317Z,5.08
2018-12-15T08:30:17.612Z,6.70
2018-12-15T08:32:46.862Z,7.00
2018-12-15T08:35:15.918Z,7.90
2018-12-15T08:37:44.474Z,7.70
2018-12-15T08:40:13.904Z,5.50
2018-12-15T08:42:42.459Z,5.33
2018-12-15T08:45:11.173Z,5.03
2018-12-15T08:47:39.509Z,4.37
2018-12-15T08:50:08.563Z,4.70
2018-12-15T08:52:37.481Z,4.80
2018-12-15T08:55:06.974Z,4.80
2018-12-15T08:57:35.562Z,4.55
2018-12-15T09:00:05.274Z,4.30
2018-12-15T09:02:33.916Z,4.50
2018-12-15T09:05:03.678Z,4.30
2018-12-15T09:07:32.242Z,4.08
2018-12-15T09:10:00.526Z,4.00
2018-12-15T09:12:29.310Z,3.87
2018-12-15T09:14:58.366Z,4.27
2018-12-15T09:17:26.737Z,3.90
2018-12-15T09:19:55.685Z,4.57
2018-12-15T09:22:24.005Z,5.77
2018-12-15T09:24:52.983Z,5.13
2018-12-15T09:27:21.268Z,4.83
2018-12-15T09:29:49.838Z,4.70
2018-12-15T09:32:18.130Z,4.23
2018-12-15T09:34:46.615Z,4.87
2018-12-15T09:37:15.527Z,4.78
2018-12-15T09:39:43.798Z,4.63
2018-12-15T09:42:12.354Z,5.05
2018-12-15T09:44:41.367Z,4.05
2018-12-15T09:47:10.345Z,3.83
2018-12-15T09:49:39.966Z,4.00
2018-12-15T09:52:09.164Z,4.83
2018-12-15T09:54:38.253Z,4.45
2018-12-15T09:57:06.541Z,3.97
2018-12-15T09:59:35.123Z,4.10
2018-12-15T10:02:03.948Z,3.70
2018-12-15T10:04:34.010Z,5.03
2018-12-15T10:07:02.664Z,6.63
2018-12-15T10:09:31.270Z,6.50
2018-12-15T10:11:59.827Z,6.20
2018-12-15T10:14:28.431Z,5.60
2018-12-15T10:16:56.972Z,5.40
2018-12-15T10:19:25.402Z,5.87
2018-12-15T10:21:54.958Z,0.60
2018-12-15T10:24:23.506Z,4.28
2018-12-15T10:26:51.872Z,4.70
2018-12-15T10:29:25.570Z,4.03
2018-12-15T10:31:59.695Z,4.30
2018-12-15T10:34:27.975Z,4.27
2018-12-15T10:36:56.295Z,4.00
2018-12-15T10:39:24.875Z,4.80
2018-12-15T10:41:53.178Z,4.60
2018-12-15T10:44:21.894Z,4.07
2018-12-15T10:46:50.218Z,4.60
2018-12-15T10:49:18.905Z,4.60
2018-12-15T10:51:47.297Z,5.27
2018-12-15T10:54:16.185Z,4.47
2018-12-15T10:56:46.171Z,4.90
2018-12-15T10:59:14.426Z,4.50
2018-12-15T11:01:43.318Z,4.80
2018-12-15T11:04:11.624Z,5.00
2018-12-15T11:06:40.174Z,4.65
2018-12-15T11:09:09.195Z,4.77
2018-12-15T11:11:38.496Z,4.53
2018-12-15T11:14:07.268Z,4.60
2018-12-15T11:16:35.974Z,5.10
2018-12-15T11:19:05.333Z,6.90
2018-12-15T11:21:33.881Z,8.05
2018-12-15T11:24:02.946Z,7.00
2018-12-15T11:26:32.195Z,7.20
2018-12-15T11:29:00.842Z,5.03
2018-12-15T11:31:29.110Z,1.90
2018-12-15T11:33:57.675Z,2.17
2018-12-15T11:36:26.245Z,2.20
2018-12-15T11:38:54.654Z,1.70
2018-12-15T11:41:23.502Z,9.03
2018-12-15T11:43:51.795Z,3.30
2018-12-15T11:46:20.775Z,6.08
2018-12-15T11:48:49.550Z,5.12
2018-12-15T11:51:18.505Z,5.50
2018-12-15T11:53:47.293Z,5.47
2018-12-15T11:56:17.574Z,5.50
2018-12-15T11:58:45.943Z,4.60
2018-12-15T12:01:14.465Z,6.57
